createdAt,value
2022-10-02T00:00:23.701Z,992.85
2022-10-02T00:01:23.745Z,992.82
2022-10-02T00:02:23.702Z,992.88
2022-10-02T00:03:23.754Z,992.80
2022-10-02T00:04:23.760Z,992.83
2022-10-02T00:05:23.689Z,992.93
2022-10-02T00:06:23.709Z,992.86
2022-10-02T00:07:23.679Z,992.92
2022-10-02T00:08:24.393Z,992.86
2022-10-02T00:09:24.682Z,992.87
2022-10-02T00:10:23.673Z,992.89
2022-10-02T00:11:23.669Z,992.92
2022-10-02T00:12:23.650Z,992.96
2022-10-02T00:13:24.621Z,992.89
2022-10-02T00:14:23.631Z,992.90
2022-10-02T00:15:23.674Z,992.86
2022-10-02T00:16:23.700Z,992.87
2022-10-02T00:17:23.617Z,992.84
2022-10-02T00:18:23.617Z,992.89
2022-10-02T00:19:23.618Z,992.90
2022-10-02T00:20:23.622Z,992.84
2022-10-02T00:21:23.620Z,992.87
2022-10-02T00:22:23.589Z,992.86
2022-10-02T00:23:23.621Z,992.92
2022-10-02T00:24:23.594Z,993.00
2022-10-02T00:25:23.577Z,992.99
2022-10-02T00:26:23.585Z,993.00
2022-10-02T00:27:23.595Z,992.95
2022-10-02T00:28:23.628Z,993.03
2022-10-02T00:29:23.573Z,993.02
2022-10-02T00:30:23.569Z,993.10
2022-10-02T00:31:23.665Z,993.07
2022-10-02T00:32:23.586Z,993.09
2022-10-02T00:33:23.548Z,993.09
2022-10-02T00:34:23.551Z,993.06
2022-10-02T00:35:23.528Z,993.01
2022-10-02T00:36:23.532Z,993.10
2022-10-02T00:37:23.572Z,993.09
2022-10-02T00:38:23.569Z,993.11
2022-10-02T00:39:23.513Z,993.06
2022-10-02T00:40:23.514Z,993.04
2022-10-02T00:41:23.575Z,993.03
2022-10-02T00:42:23.490Z,992.99
2022-10-02T00:43:23.519Z,993.03
2022-10-02T00:44:23.490Z,993.05
2022-10-02T00:45:23.519Z,993.08
2022-10-02T00:46:23.469Z,993.08
2022-10-02T00:47:23.478Z,993.04
2022-10-02T00:48:23.502Z,993.05
2022-10-02T00:49:23.489Z,993.05
2022-10-02T00:50:23.477Z,993.06
2022-10-02T00:51:23.484Z,993.06
2022-10-02T00:52:23.587Z,993.08
2022-10-02T00:53:23.456Z,993.09
2022-10-02T00:54:23.473Z,993.11
2022-10-02T00:55:23.455Z,993.08
2022-10-02T00:56:23.431Z,993.01
2022-10-02T00:57:23.436Z,993.02
2022-10-02T00:58:23.425Z,993.00
2022-10-02T00:59:23.434Z,993.07
2022-10-02T01:00:23.399Z,993.03
2022-10-02T01:01:23.540Z,993.04
2022-10-02T01:02:23.467Z,993.02
2022-10-02T01:03:23.410Z,993.00
2022-10-02T01:04:23.387Z,993.03
2022-10-02T01:05:23.400Z,993.00
2022-10-02T01:06:23.386Z,992.97
2022-10-02T01:07:23.389Z,993.01
2022-10-02T01:08:23.411Z,993.05
2022-10-02T01:09:23.379Z,993.03
2022-10-02T01:10:23.405Z,993.04
2022-10-02T01:11:23.369Z,992.95
2022-10-02T01:12:23.362Z,992.97
2022-10-02T01:13:23.357Z,993.00
2022-10-02T01:14:23.349Z,992.96
2022-10-02T01:15:23.379Z,992.93
2022-10-02T01:16:23.373Z,992.95
2022-10-02T01:17:23.336Z,992.99
2022-10-02T01:18:23.342Z,993.04
2022-10-02T01:19:23.338Z,993.03
2022-10-02T01:20:23.329Z,993.10
2022-10-02T01:21:23.350Z,993.08
2022-10-02T01:22:23.308Z,993.14
2022-10-02T01:23:23.350Z,993.11
2022-10-02T01:24:23.427Z,993.11
2022-10-02T01:25:23.304Z,993.06
2022-10-02T01:26:23.277Z,993.10
2022-10-02T01:27:23.290Z,993.14
2022-10-02T01:28:23.372Z,993.15
2022-10-02T01:29:23.293Z,993.15
2022-10-02T01:30:23.269Z,993.15
2022-10-02T01:31:23.329Z,993.16
2022-10-02T01:32:23.255Z,993.18
2022-10-02T01:33:23.364Z,993.16
2022-10-02T01:34:23.237Z,993.17
2022-10-02T01:35:23.283Z,993.12
2022-10-02T01:36:24.104Z,993.11
2022-10-02T01:37:23.227Z,993.10
2022-10-02T01:38:23.251Z,993.09
2022-10-02T01:39:23.201Z,993.08
2022-10-02T01:40:23.255Z,993.12
2022-10-02T01:41:23.205Z,993.08
2022-10-02T01:42:23.237Z,993.09
2022-10-02T01:43:24.242Z,993.13
2022-10-02T01:44:23.220Z,993.17
2022-10-02T01:45:23.232Z,993.14
2022-10-02T01:46:23.186Z,993.19
2022-10-02T01:47:23.180Z,993.19
2022-10-02T01:48:23.197Z,993.24
2022-10-02T01:49:23.249Z,993.18
2022-10-02T01:50:23.178Z,993.21
2022-10-02T01:51:23.165Z,993.21
2022-10-02T01:52:23.167Z,993.21
2022-10-02T01:53:23.198Z,993.22
2022-10-02T01:54:23.173Z,993.27
2022-10-02T01:55:23.139Z,993.27
2022-10-02T01:56:23.134Z,993.23
2022-10-02T01:57:23.116Z,993.27
2022-10-02T01:58:23.123Z,993.25
2022-10-02T01:59:23.154Z,993.26
2022-10-02T02:00:23.146Z,993.24
2022-10-02T02:01:23.154Z,993.32
2022-10-02T02:02:23.186Z,993.31
2022-10-02T02:03:23.095Z,993.30
2022-10-02T02:04:23.105Z,993.30
2022-10-02T02:05:23.188Z,993.27
2022-10-02T02:06:23.113Z,993.31
2022-10-02T02:07:23.069Z,993.31
2022-10-02T02:08:23.087Z,993.28
2022-10-02T02:09:23.060Z,993.33
2022-10-02T02:10:23.065Z,993.31
2022-10-02T02:11:23.075Z,993.34
2022-10-02T02:12:23.064Z,993.33
2022-10-02T02:13:23.040Z,993.32
2022-10-02T02:14:23.077Z,993.32
2022-10-02T02:15:23.048Z,993.37
2022-10-02T02:16:23.111Z,993.34
2022-10-02T02:17:23.089Z,993.29
2022-10-02T02:18:23.016Z,993.28
2022-10-02T02:19:23.014Z,993.38
2022-10-02T02:20:23.019Z,993.31
2022-10-02T02:21:23.006Z,993.36
2022-10-02T02:22:23.027Z,993.32
2022-10-02T02:23:23.048Z,993.34
2022-10-02T02:24:22.993Z,993.37
2022-10-02T02:25:23.001Z,993.40
2022-10-02T02:26:22.975Z,993.38
2022-10-02T02:27:23.017Z,993.35
2022-10-02T02:28:23.002Z,993.35
2022-10-02T02:29:22.971Z,993.27
2022-10-02T02:30:22.966Z,993.30
2022-10-02T02:31:23.015Z,993.27
2022-10-02T02:32:22.971Z,993.29
2022-10-02T02:33:23.941Z,993.27
2022-10-02T02:34:22.952Z,993.27
2022-10-02T02:35:22.938Z,993.24
2022-10-02T02:36:22.930Z,993.30
2022-10-02T02:37:22.941Z,993.27
2022-10-02T02:38:22.897Z,993.24
2022-10-02T02:39:23.155Z,993.33
2022-10-02T02:40:22.998Z,993.26
2022-10-02T02:41:22.889Z,993.22
2022-10-02T02:42:26.054Z,993.26
2022-10-02T02:43:23.899Z,993.27
2022-10-02T02:44:22.878Z,993.23
2022-10-02T02:45:22.903Z,993.26
2022-10-02T02:46:22.854Z,993.21
2022-10-02T02:47:22.853Z,993.27
2022-10-02T02:48:22.853Z,993.22
2022-10-02T02:49:22.849Z,993.19
2022-10-02T02:50:22.855Z,993.26
2022-10-02T02:51:22.838Z,993.22
2022-10-02T02:52:22.836Z,993.23
2022-10-02T02:53:22.839Z,993.20
2022-10-02T02:54:22.841Z,993.22
2022-10-02T02:55:22.834Z,993.17
2022-10-02T02:56:22.813Z,993.18
2022-10-02T02:57:22.795Z,993.12
2022-10-02T02:58:22.802Z,993.16
2022-10-02T02:59:22.811Z,993.16
2022-10-02T03:00:22.828Z,993.14
2022-10-02T03:01:22.862Z,993.12
2022-10-02T03:02:22.846Z,993.09
2022-10-02T03:03:22.772Z,993.11
2022-10-02T03:04:22.842Z,993.22
2022-10-02T03:05:22.797Z,993.17
2022-10-02T03:06:22.769Z,993.15
2022-10-02T03:07:22.772Z,993.15
2022-10-02T03:08:22.772Z,993.12
2022-10-02T03:09:22.766Z,993.15
2022-10-02T03:10:22.761Z,993.17
2022-10-02T03:11:22.756Z,993.18
2022-10-02T03:12:22.729Z,993.17
2022-10-02T03:13:23.019Z,993.24
2022-10-02T03:14:22.745Z,993.20
2022-10-02T03:15:22.720Z,993.22
2022-10-02T03:16:22.786Z,993.18
2022-10-02T03:17:22.747Z,993.15
2022-10-02T03:18:22.726Z,993.14
2022-10-02T03:19:22.690Z,993.11
2022-10-02T03:20:22.694Z,993.13
2022-10-02T03:21:22.698Z,993.14
2022-10-02T03:22:22.726Z,993.13
2022-10-02T03:23:22.717Z,993.13
2022-10-02T03:24:22.676Z,993.08
2022-10-02T03:25:22.684Z,993.05
2022-10-02T03:26:22.665Z,993.11
2022-10-02T03:27:22.678Z,993.08
2022-10-02T03:28:37.614Z,993.05
2022-10-02T03:29:24.680Z,993.01
2022-10-02T03:30:22.653Z,993.03
2022-10-02T03:31:22.747Z,993.05
2022-10-02T03:32:22.639Z,993.03
2022-10-02T03:33:22.622Z,993.03
2022-10-02T03:34:22.655Z,993.02
2022-10-02T03:35:22.623Z,993.04
2022-10-02T03:36:22.609Z,993.00
2022-10-02T03:37:22.614Z,993.00
2022-10-02T03:38:22.615Z,993.01
2022-10-02T03:39:25.515Z,992.99
2022-10-02T03:40:23.596Z,992.98
2022-10-02T03:41:22.598Z,992.97
2022-10-02T03:42:22.854Z,992.95
2022-10-02T03:43:22.590Z,992.99
2022-10-02T03:44:22.568Z,993.00
2022-10-02T03:45:46.157Z,992.99
2022-10-02T03:46:24.597Z,993.00
2022-10-02T03:47:22.556Z,993.01
2022-10-02T03:48:22.582Z,993.03
2022-10-02T03:49:22.564Z,993.03
2022-10-02T03:50:22.577Z,993.03
2022-10-02T03:51:22.568Z,993.07
2022-10-02T03:52:22.556Z,993.01
2022-10-02T03:53:22.541Z,993.05
2022-10-02T03:54:22.511Z,993.10
2022-10-02T03:55:22.536Z,993.06
2022-10-02T03:56:22.518Z,993.09
2022-10-02T03:57:22.489Z,993.08
2022-10-02T03:58:22.485Z,993.12
2022-10-02T03:59:22.477Z,993.11
2022-10-02T04:00:23.493Z,992.99
2022-10-02T04:01:22.558Z,993.03
2022-10-02T04:02:22.490Z,993.00
2022-10-02T04:03:22.525Z,993.03
2022-10-02T04:04:22.473Z,993.00
2022-10-02T04:05:22.473Z,993.00
2022-10-02T04:06:22.441Z,993.05
2022-10-02T04:07:22.476Z,993.04
2022-10-02T04:08:22.484Z,993.05
2022-10-02T04:09:23.400Z,993.08
2022-10-02T04:10:22.426Z,993.05
2022-10-02T04:11:22.437Z,993.04
2022-10-02T04:12:22.441Z,993.00
2022-10-02T04:13:22.441Z,993.06
2022-10-02T04:14:22.400Z,993.03
2022-10-02T04:15:22.407Z,993.05
2022-10-02T04:16:22.513Z,993.01
2022-10-02T04:17:22.399Z,993.02
2022-10-02T04:18:22.374Z,992.99
2022-10-02T04:19:22.406Z,993.07
2022-10-02T04:20:22.364Z,993.02
2022-10-02T04:21:23.356Z,993.06
2022-10-02T04:22:22.347Z,993.06
2022-10-02T04:23:22.368Z,993.11
2022-10-02T04:24:22.348Z,993.10
2022-10-02T04:25:22.337Z,993.15
2022-10-02T04:26:22.344Z,993.17
2022-10-02T04:27:22.324Z,993.11
2022-10-02T04:28:22.400Z,993.11
2022-10-02T04:29:22.343Z,993.03
2022-10-02T04:30:22.316Z,993.00
2022-10-02T04:31:22.344Z,992.99
2022-10-02T04:32:22.903Z,993.01
2022-10-02T04:33:22.385Z,992.99
2022-10-02T04:34:22.306Z,992.92
2022-10-02T04:35:22.285Z,992.91
2022-10-02T04:36:22.274Z,992.92
2022-10-02T04:37:22.252Z,992.91
2022-10-02T04:38:22.260Z,992.93
2022-10-02T04:39:22.277Z,992.97
2022-10-02T04:40:22.283Z,992.92
2022-10-02T04:41:22.396Z,992.89
2022-10-02T04:42:22.230Z,992.92
2022-10-02T04:43:22.220Z,992.91
2022-10-02T04:44:22.212Z,992.92
2022-10-02T04:45:22.290Z,992.88
2022-10-02T04:46:22.202Z,992.83
2022-10-02T04:47:22.189Z,992.86
2022-10-02T04:48:22.189Z,992.85
2022-10-02T04:49:22.203Z,992.86
2022-10-02T04:50:22.176Z,992.83
2022-10-02T04:51:22.178Z,992.80
2022-10-02T04:52:22.224Z,992.75
2022-10-02T04:53:22.166Z,992.72
2022-10-02T04:54:22.171Z,992.73
2022-10-02T04:55:22.156Z,992.78
2022-10-02T04:56:22.138Z,992.76
2022-10-02T04:57:22.158Z,992.74
2022-10-02T04:58:22.127Z,992.75
2022-10-02T04:59:22.116Z,992.77
2022-10-02T05:00:22.127Z,992.81
2022-10-02T05:01:22.212Z,992.80
2022-10-02T05:02:22.159Z,992.81
2022-10-02T05:03:22.119Z,992.75
2022-10-02T05:04:22.107Z,992.78
2022-10-02T05:05:22.095Z,992.78
2022-10-02T05:06:22.106Z,992.80
2022-10-02T05:07:22.067Z,992.74
2022-10-02T05:08:22.112Z,992.81
2022-10-02T05:09:24.818Z,992.83
2022-10-02T05:10:23.059Z,992.81
2022-10-02T05:11:22.055Z,992.80
2022-10-02T05:12:22.156Z,992.83
2022-10-02T05:13:22.072Z,992.86
2022-10-02T05:14:22.066Z,992.86
2022-10-02T05:15:22.041Z,992.84
2022-10-02T05:16:22.120Z,992.82
2022-10-02T05:17:22.023Z,992.83
2022-10-02T05:18:21.999Z,992.78
2022-10-02T05:19:22.003Z,992.76
2022-10-02T05:20:22.087Z,992.75
2022-10-02T05:21:21.992Z,992.82
2022-10-02T05:22:22.001Z,992.87
2022-10-02T05:23:21.997Z,992.91
2022-10-02T05:24:21.998Z,993.00
2022-10-02T05:25:22.005Z,992.97
2022-10-02T05:26:21.963Z,992.98
2022-10-02T05:27:21.972Z,993.06
2022-10-02T05:28:22.019Z,993.05
2022-10-02T05:29:21.954Z,993.10
2022-10-02T05:30:21.984Z,993.06
2022-10-02T05:31:21.963Z,993.13
2022-10-02T05:32:21.953Z,993.12
2022-10-02T05:33:21.936Z,993.13
2022-10-02T05:34:21.936Z,993.10
2022-10-02T05:35:21.951Z,993.15
2022-10-02T05:36:21.949Z,993.19
2022-10-02T05:37:21.905Z,993.16
2022-10-02T05:38:21.894Z,993.23
2022-10-02T05:39:21.891Z,993.24
2022-10-02T05:40:21.896Z,993.24
2022-10-02T05:41:21.919Z,993.20
2022-10-02T05:42:21.896Z,993.21
2022-10-02T05:43:21.886Z,993.22
2022-10-02T05:44:21.863Z,993.19
2022-10-02T05:45:21.858Z,993.15
2022-10-02T05:46:21.896Z,993.14
2022-10-02T05:47:21.875Z,993.15
2022-10-02T05:48:21.847Z,993.10
2022-10-02T05:49:21.861Z,993.10
2022-10-02T05:50:21.859Z,993.11
2022-10-02T05:51:21.827Z,993.08
2022-10-02T05:52:21.862Z,993.03
2022-10-02T05:53:21.822Z,993.05
2022-10-02T05:54:21.805Z,993.01
2022-10-02T05:55:21.803Z,993.07
2022-10-02T05:56:21.807Z,993.08
2022-10-02T05:57:21.803Z,993.04
2022-10-02T05:58:21.807Z,993.07
2022-10-02T05:59:21.794Z,993.11
2022-10-02T06:00:21.779Z,993.12
2022-10-02T06:01:21.867Z,993.15
2022-10-02T06:02:21.794Z,993.17
2022-10-02T06:03:22.018Z,993.19
2022-10-02T06:04:21.759Z,993.20
2022-10-02T06:05:21.759Z,993.21
2022-10-02T06:06:21.751Z,993.19
2022-10-02T06:07:21.721Z,993.20
2022-10-02T06:08:21.751Z,993.11
2022-10-02T06:09:21.737Z,993.15
2022-10-02T06:10:21.710Z,993.12
2022-10-02T06:11:21.705Z,993.14
2022-10-02T06:12:21.691Z,993.14
2022-10-02T06:13:21.720Z,993.12
2022-10-02T06:14:21.672Z,993.11
2022-10-02T06:15:21.683Z,993.14
2022-10-02T06:16:21.715Z,993.12
2022-10-02T06:17:21.663Z,993.14
2022-10-02T06:18:21.713Z,993.13
2022-10-02T06:19:21.644Z,993.15
2022-10-02T06:20:21.673Z,993.19
2022-10-02T06:21:21.685Z,993.16
2022-10-02T06:22:22.634Z,993.19
2022-10-02T06:23:21.645Z,993.23
2022-10-02T06:24:21.657Z,993.20
2022-10-02T06:25:21.615Z,993.19
2022-10-02T06:26:21.613Z,993.16
2022-10-02T06:27:21.612Z,993.13
2022-10-02T06:28:21.616Z,993.07
2022-10-02T06:29:26.306Z,993.05
2022-10-02T06:30:23.622Z,993.16
2022-10-02T06:31:21.697Z,993.13
2022-10-02T06:32:21.603Z,993.11
2022-10-02T06:33:21.612Z,993.13
2022-10-02T06:34:21.562Z,993.12
2022-10-02T06:35:21.637Z,993.14
2022-10-02T06:36:21.541Z,993.10
2022-10-02T06:37:21.547Z,993.11
2022-10-02T06:38:21.557Z,993.10
2022-10-02T06:39:21.539Z,993.15
2022-10-02T06:40:21.543Z,993.09
2022-10-02T06:41:21.506Z,993.16
2022-10-02T06:42:21.667Z,993.17
2022-10-02T06:43:21.514Z,993.11
2022-10-02T06:44:21.496Z,993.12
2022-10-02T06:45:21.500Z,993.19
2022-10-02T06:46:21.500Z,993.13
2022-10-02T06:47:21.531Z,993.16
2022-10-02T06:48:21.499Z,993.16
2022-10-02T06:49:21.463Z,993.21
2022-10-02T06:50:21.469Z,993.26
2022-10-02T06:51:21.444Z,993.21
2022-10-02T06:52:21.458Z,993.24
2022-10-02T06:53:21.498Z,993.26
2022-10-02T06:54:21.442Z,993.28
2022-10-02T06:55:21.413Z,993.23
2022-10-02T06:56:21.422Z,993.25
2022-10-02T06:57:21.421Z,993.22
2022-10-02T06:58:21.431Z,993.27
2022-10-02T06:59:21.412Z,993.22
2022-10-02T07:00:21.404Z,993.20
2022-10-02T07:01:21.453Z,993.25
2022-10-02T07:02:21.446Z,993.18
2022-10-02T07:03:21.396Z,993.18
2022-10-02T07:04:21.361Z,993.13
2022-10-02T07:05:21.360Z,993.21
2022-10-02T07:06:21.368Z,993.25
2022-10-02T07:07:21.340Z,993.25
2022-10-02T07:08:21.367Z,993.29
2022-10-02T07:09:21.337Z,993.31
2022-10-02T07:10:21.317Z,993.31
2022-10-02T07:11:22.327Z,993.31
2022-10-02T07:12:21.312Z,993.30
2022-10-02T07:13:21.356Z,993.40
2022-10-02T07:14:21.304Z,993.36
2022-10-02T07:15:21.317Z,993.32
2022-10-02T07:16:21.304Z,993.39
2022-10-02T07:17:22.453Z,993.32
2022-10-02T07:18:22.363Z,993.31
2022-10-02T07:19:21.392Z,993.28
2022-10-02T07:20:21.257Z,993.22
2022-10-02T07:21:21.323Z,993.28
2022-10-02T07:22:43.493Z,993.22
2022-10-02T07:23:23.268Z,993.25
2022-10-02T07:24:21.298Z,993.26
2022-10-02T07:25:21.253Z,993.27
2022-10-02T07:26:21.242Z,993.27
2022-10-02T07:27:21.209Z,993.28
2022-10-02T07:28:21.267Z,993.26
2022-10-02T07:29:21.190Z,993.29
2022-10-02T07:30:21.224Z,993.35
2022-10-02T07:31:21.213Z,993.35
2022-10-02T07:32:21.176Z,993.36
2022-10-02T07:33:21.179Z,993.29
2022-10-02T07:34:21.277Z,993.39
2022-10-02T07:35:21.189Z,993.39
2022-10-02T07:36:21.141Z,993.40
2022-10-02T07:37:21.155Z,993.34
2022-10-02T07:38:21.127Z,993.42
2022-10-02T07:39:21.248Z,993.43
2022-10-02T07:40:21.189Z,993.49
2022-10-02T07:41:21.107Z,993.47
2022-10-02T07:42:21.131Z,993.44
2022-10-02T07:43:21.111Z,993.44
2022-10-02T07:44:21.091Z,993.49
2022-10-02T07:45:21.221Z,993.46
2022-10-02T07:46:21.076Z,993.49
2022-10-02T07:47:21.094Z,993.40
2022-10-02T07:48:21.108Z,993.42
2022-10-02T07:49:21.056Z,993.42
2022-10-02T07:50:21.040Z,993.41
2022-10-02T07:51:21.114Z,993.49
2022-10-02T07:52:22.066Z,993.48
2022-10-02T07:53:21.039Z,993.46
2022-10-02T07:54:21.015Z,993.55
2022-10-02T07:55:21.014Z,993.58
2022-10-02T07:56:21.016Z,993.54
2022-10-02T07:57:21.027Z,993.62
2022-10-02T07:58:20.991Z,993.56
2022-10-02T07:59:21.979Z,993.55
2022-10-02T08:00:20.999Z,993.56
2022-10-02T08:01:20.965Z,993.65
2022-10-02T08:02:21.050Z,993.57
2022-10-02T08:03:21.002Z,993.69
2022-10-02T08:04:20.951Z,993.54
2022-10-02T08:05:20.950Z,993.56
2022-10-02T08:06:20.980Z,993.53
2022-10-02T08:07:20.938Z,993.54
2022-10-02T08:08:20.929Z,993.53
2022-10-02T08:09:20.942Z,993.46
2022-10-02T08:10:20.910Z,993.51
2022-10-02T08:11:20.905Z,993.50
2022-10-02T08:12:20.902Z,993.51
2022-10-02T08:13:20.894Z,993.53
2022-10-02T08:14:20.919Z,993.60
2022-10-02T08:15:20.873Z,993.66
2022-10-02T08:16:20.955Z,993.65
2022-10-02T08:17:20.879Z,993.65
2022-10-02T08:18:34.284Z,993.68
2022-10-02T08:19:22.870Z,993.64
2022-10-02T08:20:20.842Z,993.65
2022-10-02T08:21:20.827Z,993.67
2022-10-02T08:22:20.848Z,993.69
2022-10-02T08:23:20.825Z,993.69
2022-10-02T08:24:20.807Z,993.72
2022-10-02T08:25:20.808Z,993.67
2022-10-02T08:26:20.791Z,993.73
2022-10-02T08:27:20.839Z,993.74
2022-10-02T08:28:20.815Z,993.73
2022-10-02T08:29:20.780Z,993.74
2022-10-02T08:30:20.762Z,993.78
2022-10-02T08:31:20.844Z,993.78
2022-10-02T08:32:20.755Z,993.76
2022-10-02T08:33:20.762Z,993.77
2022-10-02T08:34:20.769Z,993.81
2022-10-02T08:35:20.759Z,993.76
2022-10-02T08:36:20.741Z,993.75
2022-10-02T08:37:20.717Z,993.75
2022-10-02T08:38:20.690Z,993.77
2022-10-02T08:39:20.690Z,993.72
2022-10-02T08:40:20.687Z,993.66
2022-10-02T08:41:20.710Z,993.68
2022-10-02T08:42:20.686Z,993.71
2022-10-02T08:43:20.686Z,993.70
2022-10-02T08:44:21.663Z,993.71
2022-10-02T08:45:20.652Z,993.71
2022-10-02T08:46:20.657Z,993.70
2022-10-02T08:47:20.639Z,993.72
2022-10-02T08:48:20.661Z,993.71
2022-10-02T08:49:20.620Z,993.73
2022-10-02T08:50:20.621Z,993.75
2022-10-02T08:51:20.601Z,993.70
2022-10-02T08:52:20.640Z,993.67
2022-10-02T08:53:20.686Z,993.60
2022-10-02T08:54:20.600Z,993.64
2022-10-02T08:55:20.571Z,993.65
2022-10-02T08:56:20.612Z,993.70
2022-10-02T08:57:20.585Z,993.70
2022-10-02T08:58:20.576Z,993.67
2022-10-02T08:59:20.547Z,993.67
2022-10-02T09:00:20.534Z,993.61
2022-10-02T09:01:20.628Z,993.72
2022-10-02T09:02:20.544Z,993.70
2022-10-02T09:03:20.532Z,993.67
2022-10-02T09:04:21.541Z,993.71
2022-10-02T09:05:20.502Z,993.74
2022-10-02T09:06:20.503Z,993.79
2022-10-02T09:07:22.883Z,993.74
2022-10-02T09:08:21.480Z,993.75
2022-10-02T09:09:20.461Z,993.77
2022-10-02T09:10:20.507Z,993.80
2022-10-02T09:11:20.459Z,993.74
2022-10-02T09:12:20.451Z,993.75
2022-10-02T09:13:20.939Z,993.80
2022-10-02T09:14:20.435Z,993.79
2022-10-02T09:15:20.439Z,993.76
2022-10-02T09:16:20.466Z,993.77
2022-10-02T09:17:20.438Z,993.78
2022-10-02T09:18:20.408Z,993.78
2022-10-02T09:19:20.412Z,993.80
2022-10-02T09:20:20.395Z,993.79
2022-10-02T09:21:20.529Z,993.77
2022-10-02T09:22:20.403Z,993.79
2022-10-02T09:23:20.388Z,993.76
2022-10-02T09:24:20.352Z,993.79
2022-10-02T09:25:20.362Z,993.76
2022-10-02T09:26:20.378Z,993.78
2022-10-02T09:27:20.322Z,993.74
2022-10-02T09:28:20.352Z,993.74
2022-10-02T09:29:20.317Z,993.72
2022-10-02T09:30:20.324Z,993.72
2022-10-02T09:31:20.401Z,993.70
2022-10-02T09:32:20.305Z,993.70
2022-10-02T09:33:20.415Z,993.70
2022-10-02T09:34:20.316Z,993.70
2022-10-02T09:35:20.289Z,993.72
2022-10-02T09:36:20.266Z,993.69
2022-10-02T09:37:20.322Z,993.71
2022-10-02T09:38:20.393Z,993.69
2022-10-02T09:39:20.236Z,993.64
2022-10-02T09:40:20.322Z,993.71
2022-10-02T09:41:20.234Z,993.70
2022-10-02T09:42:20.212Z,993.68
2022-10-02T09:43:20.232Z,993.67
2022-10-02T09:44:20.211Z,993.69
2022-10-02T09:45:20.233Z,993.73
2022-10-02T09:46:20.246Z,993.76
2022-10-02T09:47:20.190Z,993.77
2022-10-02T09:48:20.207Z,993.65
2022-10-02T09:49:20.212Z,993.75
2022-10-02T09:50:20.202Z,993.73
2022-10-02T09:51:20.166Z,993.75
2022-10-02T09:52:20.150Z,993.73
2022-10-02T09:53:20.267Z,993.64
2022-10-02T09:54:20.150Z,993.67
2022-10-02T09:55:20.130Z,993.66
2022-10-02T09:56:20.123Z,993.65
2022-10-02T09:57:20.130Z,993.67
2022-10-02T09:58:20.102Z,993.67
2022-10-02T09:59:20.096Z,993.72
2022-10-02T10:00:20.119Z,993.71
2022-10-02T10:01:20.162Z,993.73
2022-10-02T10:02:24.800Z,993.73
2022-10-02T10:03:22.127Z,993.74
2022-10-02T10:04:20.052Z,993.75
2022-10-02T10:05:20.052Z,993.75
2022-10-02T10:06:20.078Z,993.75
2022-10-02T10:07:20.104Z,993.81
2022-10-02T10:08:20.025Z,993.75
2022-10-02T10:09:20.027Z,993.80
2022-10-02T10:10:20.009Z,993.79
2022-10-02T10:11:20.001Z,993.73
2022-10-02T10:12:20.000Z,993.73
2022-10-02T10:13:20.007Z,993.75
2022-10-02T10:14:21.017Z,993.81
2022-10-02T10:15:19.981Z,993.82
2022-10-02T10:16:20.008Z,993.74
2022-10-02T10:17:19.946Z,993.75
2022-10-02T10:18:19.997Z,993.72
2022-10-02T10:19:19.937Z,993.78
2022-10-02T10:20:19.960Z,993.62
2022-10-02T10:21:19.912Z,993.60
2022-10-02T10:22:19.912Z,993.65
2022-10-02T10:23:19.927Z,993.65
2022-10-02T10:24:20.908Z,993.69
2022-10-02T10:25:19.904Z,993.63
2022-10-02T10:26:19.882Z,993.70
2022-10-02T10:27:19.874Z,993.71
2022-10-02T10:28:19.949Z,993.76
2022-10-02T10:29:19.854Z,993.72
2022-10-02T10:30:19.905Z,993.77
2022-10-02T10:31:19.850Z,993.71
2022-10-02T10:32:19.854Z,993.72
2022-10-02T10:33:19.830Z,993.73
2022-10-02T10:34:19.842Z,993.79
2022-10-02T10:35:19.847Z,993.77
2022-10-02T10:36:19.849Z,993.74
2022-10-02T10:37:19.943Z,993.77
2022-10-02T10:38:19.815Z,993.73
2022-10-02T10:39:19.814Z,993.80
2022-10-02T10:40:19.783Z,993.78
2022-10-02T10:41:19.800Z,993.94
2022-10-02T10:42:19.769Z,993.86
2022-10-02T10:43:19.775Z,993.91
2022-10-02T10:44:19.750Z,993.91
2022-10-02T10:45:19.861Z,993.88
2022-10-02T10:46:19.869Z,993.95
2022-10-02T10:47:19.758Z,993.87
2022-10-02T10:48:19.740Z,993.95
2022-10-02T10:49:19.732Z,993.96
2022-10-02T10:50:19.721Z,993.94
2022-10-02T10:51:19.728Z,993.92
2022-10-02T10:52:19.730Z,993.97
2022-10-02T10:53:19.727Z,993.99
2022-10-02T10:54:19.700Z,993.94
2022-10-02T10:55:19.909Z,993.95
2022-10-02T10:56:19.729Z,993.93
2022-10-02T10:57:19.715Z,993.98
2022-10-02T10:58:19.702Z,994.03
2022-10-02T10:59:24.410Z,993.96
2022-10-02T11:00:21.711Z,994.04
2022-10-02T11:01:19.646Z,994.07
2022-10-02T11:02:19.714Z,994.02
2022-10-02T11:03:19.610Z,993.97
2022-10-02T11:04:19.654Z,993.99
2022-10-02T11:05:19.628Z,994.00
2022-10-02T11:06:19.584Z,994.00
2022-10-02T11:07:19.573Z,994.03
2022-10-02T11:08:19.566Z,994.03
2022-10-02T11:09:19.566Z,994.02
2022-10-02T11:10:19.587Z,994.02
2022-10-02T11:11:19.564Z,994.09
2022-10-02T11:12:19.544Z,994.09
2022-10-02T11:13:19.536Z,994.07
2022-10-02T11:14:19.544Z,994.09
2022-10-02T11:15:19.518Z,994.07
2022-10-02T11:16:19.590Z,994.09
2022-10-02T11:17:19.510Z,994.02
2022-10-02T11:18:19.498Z,994.05
2022-10-02T11:19:21.609Z,994.05
2022-10-02T11:20:20.504Z,994.03
2022-10-02T11:21:19.502Z,994.00
2022-10-02T11:22:19.461Z,993.99
2022-10-02T11:23:19.507Z,993.99
2022-10-02T11:24:19.466Z,993.94
2022-10-02T11:25:19.447Z,993.96
2022-10-02T11:26:19.520Z,993.92
2022-10-02T11:27:19.919Z,993.97
2022-10-02T11:28:19.507Z,993.97
2022-10-02T11:29:19.427Z,993.96
2022-10-02T11:30:19.404Z,993.91
2022-10-02T11:31:19.465Z,993.91
2022-10-02T11:32:19.482Z,993.90
2022-10-02T11:33:19.422Z,994.01
2022-10-02T11:34:19.429Z,993.89
2022-10-02T11:35:19.407Z,993.89
2022-10-02T11:36:19.390Z,993.86
2022-10-02T11:37:19.367Z,993.91
2022-10-02T11:38:19.362Z,993.86
2022-10-02T11:39:19.341Z,993.87
2022-10-02T11:40:19.331Z,993.84
2022-10-02T11:41:19.320Z,993.84
2022-10-02T11:42:19.396Z,993.89
2022-10-02T11:43:19.374Z,993.90
2022-10-02T11:44:19.294Z,993.87
2022-10-02T11:45:19.305Z,993.85
2022-10-02T11:46:19.331Z,993.91
2022-10-02T11:47:19.300Z,993.82
2022-10-02T11:48:19.265Z,993.81
2022-10-02T11:49:19.279Z,993.85
2022-10-02T11:50:20.056Z,993.78
2022-10-02T11:51:19.258Z,993.84
2022-10-02T11:52:19.261Z,993.81
2022-10-02T11:53:19.248Z,993.79
2022-10-02T11:54:19.224Z,993.85
2022-10-02T11:55:19.233Z,993.83
2022-10-02T11:56:19.232Z,993.87
2022-10-02T11:57:19.231Z,993.82
2022-10-02T11:58:19.213Z,993.91
2022-10-02T11:59:19.193Z,993.89
2022-10-02T12:00:19.186Z,993.85
2022-10-02T12:01:19.298Z,993.88
2022-10-02T12:02:19.342Z,993.89
2022-10-02T12:03:19.210Z,993.82
2022-10-02T12:04:19.186Z,993.90
2022-10-02T12:05:19.174Z,993.87
2022-10-02T12:06:19.165Z,993.89
2022-10-02T12:07:19.163Z,993.81
2022-10-02T12:08:19.151Z,993.81
2022-10-02T12:09:19.166Z,993.86
2022-10-02T12:10:19.144Z,993.83
2022-10-02T12:11:19.120Z,993.84
2022-10-02T12:12:19.109Z,993.80
2022-10-02T12:13:19.121Z,993.82
2022-10-02T12:14:19.141Z,993.77
2022-10-02T12:15:19.097Z,993.83
2022-10-02T12:16:19.193Z,993.88
2022-10-02T12:17:19.090Z,993.89
2022-10-02T12:18:21.823Z,993.88
2022-10-02T12:19:20.091Z,993.81
2022-10-02T12:20:19.064Z,993.79
2022-10-02T12:21:19.059Z,993.77
2022-10-02T12:22:19.077Z,993.82
2022-10-02T12:23:19.072Z,993.74
2022-10-02T12:24:19.104Z,993.78
2022-10-02T12:25:19.033Z,993.77
2022-10-02T12:26:19.057Z,993.76
2022-10-02T12:27:19.012Z,993.73
2022-10-02T12:28:19.080Z,993.71